Time;durP1;ratioP1;P1;durP2;ratioP2;P2;SDS_P1;SDS_P2;PMS_P1;PMS_P2;Temp;Humidity;BMP_temperature;BMP_pressure;BME280_temperature;BME280_humidity;BME280_pressure;Samples;Min_cycle;Max_cycle;Signal;HPM_P1;HPM_P2
2022/09/24 00:01:37;;;;;;;2.05;0.95;;;;;;;6.68;100.00;100885.53;5023265;28;20039;-55
2022/09/24 00:04:06;;;;;;;2.05;0.63;;;;;;;6.62;100.00;100899.34;5027777;28;20029;-51
2022/09/24 00:06:43;;;;;;;5.00;0.75;;;;;;;6.56;100.00;100902.63;5034150;28;20039;-51
2022/09/24 00:09:09;;;;;;;0.73;0.52;;;;;;;6.50;100.00;100895.31;5017731;28;20026;-50
2022/09/24 00:11:34;;;;;;;0.50;0.50;;;;;;;6.47;100.00;100898.25;5024962;28;20041;-50
2022/09/24 00:14:00;;;;;;;1.45;0.47;;;;;;;6.44;100.00;100896.75;5031198;28;20722;-49
2022/09/24 00:16:29;;;;;;;1.45;0.63;;;;;;;6.38;100.00;100888.66;5020501;28;20033;-49
2022/09/24 00:18:54;;;;;;;1.90;0.75;;;;;;;6.29;100.00;100887.75;5026434;28;20037;-52
2022/09/24 00:21:23;;;;;;;5.68;0.55;;;;;;;6.25;100.00;100887.25;5028740;28;20045;-51
2022/09/24 00:23:51;;;;;;;1.95;0.40;;;;;;;6.23;100.00;100881.28;5022813;28;20048;-50
2022/09/24 00:29:01;;;;;;;0.60;0.60;;;;;;;6.15;100.00;100881.22;5031904;28;20121;-51
2022/09/24 00:31:27;;;;;;;0.80;0.35;;;;;;;6.09;100.00;100887.94;5028318;28;20563;-51
2022/09/24 00:33:53;;;;;;;4.97;0.68;;;;;;;6.06;100.00;100882.13;5023550;28;20044;-49
2022/09/24 00:36:20;;;;;;;2.97;0.50;;;;;;;6.08;100.00;100880.19;5022603;28;20041;-50
2022/09/24 00:38:50;;;;;;;1.85;0.88;;;;;;;6.05;100.00;100894.47;5031386;28;20132;-50
2022/09/24 00:41:18;;;;;;;1.40;1.30;;;;;;;6.03;100.00;100885.91;5026041;28;20450;-52
2022/09/24 00:43:45;;;;;;;2.17;0.88;;;;;;;6.01;100.00;100885.22;5029633;28;20029;-50
2022/09/24 00:46:34;;;;;;;1.02;0.55;;;;;;;5.94;100.00;100883.34;5024971;28;20071;-52
2022/09/24 00:49:10;;;;;;;2.25;0.60;;;;;;;5.87;100.00;100870.75;5019828;28;20500;-48
2022/09/24 00:51:36;;;;;;;1.00;0.57;;;;;;;5.83;100.00;100872.03;5018378;28;20121;-50
2022/09/24 00:54:10;;;;;;;0.47;0.43;;;;;;;5.81;100.00;100874.00;5024585;28;20056;-49
2022/09/24 00:56:38;;;;;;;3.25;1.98;;;;;;;5.78;100.00;100871.69;5028616;28;20406;-49
2022/09/24 00:59:06;;;;;;;7.30;2.80;;;;;;;5.78;100.00;100869.03;5029088;28;20053;-49
2022/09/24 01:01:32;;;;;;;5.40;1.00;;;;;;;5.74;100.00;100875.56;5031313;28;20030;-49
2022/09/24 01:04:00;;;;;;;3.83;1.98;;;;;;;5.72;100.00;100874.88;5023295;28;20383;-49
2022/09/24 01:06:26;;;;;;;3.75;0.95;;;;;;;5.71;100.00;100873.25;5021828;28;20033;-53
2022/09/24 01:08:54;;;;;;;1.25;1.15;;;;;;;5.74;100.00;100867.69;5030586;28;20108;-48
2022/09/24 01:11:34;;;;;;;2.50;1.13;;;;;;;5.75;100.00;100863.25;5019875;28;20063;-50
2022/09/24 01:14:12;;;;;;;4.47;1.58;;;;;;;5.77;100.00;100864.75;5023992;28;20752;-54
2022/09/24 01:16:59;;;;;;;4.03;1.48;;;;;;;5.80;100.00;100863.63;5027616;28;20029;-50
2022/09/24 01:20:01;;;;;;;1.73;1.58;;;;;;;5.75;100.00;100865.88;5025437;28;20042;-52
2022/09/24 01:22:54;;;;;;;1.75;1.33;;;;;;;5.73;100.00;100863.41;5019493;28;20025;-50
2022/09/24 01:25:48;;;;;;;1.50;1.23;;;;;;;5.74;100.00;100851.88;5020661;28;20505;-51
2022/09/24 01:28:50;;;;;;;1.98;1.20;;;;;;;5.76;100.00;100851.75;5020629;28;20065;-51
2022/09/24 01:31:17;;;;;;;;;;;;;;;5.84;100.00;100857.09;5027060;28;20029;-50
2022/09/24 01:33:48;;;;;;;2.30;1.05;;;;;;;5.80;100.00;100848.66;5022953;28;20015;-53
2022/09/24 01:36:15;;;;;;;2.47;1.83;;;;;;;5.76;100.00;100857.84;5025782;28;20427;-49
2022/09/24 01:38:44;;;;;;;2.97;2.55;;;;;;;5.77;100.00;100856.03;5025318;28;20538;-52
2022/09/24 01:41:11;;;;;;;3.78;2.95;;;;;;;5.72;100.00;100853.84;5021929;28;20026;-51
2022/09/24 01:43:38;;;;;;;3.75;1.55;;;;;;;5.73;100.00;100852.03;5023050;28;20036;-50
2022/09/24 01:46:05;;;;;;;1.73;1.63;;;;;;;5.74;100.00;100843.19;5024829;28;20041;-49
2022/09/24 01:48:34;;;;;;;3.17;2.22;;;;;;;5.69;100.00;100843.63;5015097;28;20035;-49
2022/09/24 01:51:38;;;;;;;4.50;1.60;;;;;;;5.76;100.00;100842.03;5023521;28;20525;-51
2022/09/24 01:54:08;;;;;;;7.75;1.60;;;;;;;5.74;100.00;100848.44;5025831;28;20060;-51
2022/09/24 01:56:57;;;;;;;3.35;1.95;;;;;;;5.76;100.00;100846.50;5028094;28;20491;-50
2022/09/24 01:59:45;;;;;;;3.85;2.47;;;;;;;5.77;100.00;100846.31;5025493;28;20511;-51
2022/09/24 02:02:27;;;;;;;4.05;1.42;;;;;;;5.75;100.00;100845.63;5027770;28;20034;-51
2022/09/24 02:05:00;;;;;;;4.47;1.38;;;;;;;5.74;100.00;100844.00;5019430;28;20537;-52
2022/09/24 02:07:32;;;;;;;2.22;1.80;;;;;;;5.72;100.00;100845.13;5032703;28;20667;-49
2022/09/24 02:09:58;;;;;;;2.28;1.65;;;;;;;5.71;100.00;100838.22;5032337;28;20325;-50
2022/09/24 02:12:38;;;;;;;3.33;2.00;;;;;;;5.68;100.00;100839.34;5030780;28;20036;-49
2022/09/24 02:15:16;;;;;;;2.63;2.43;;;;;;;5.63;100.00;100839.78;5019237;28;20069;-49
2022/09/24 02:17:45;;;;;;;2.35;1.38;;;;;;;5.70;100.00;100837.38;5033632;28;20029;-48
2022/09/24 02:20:17;;;;;;;1.80;1.42;;;;;;;5.70;100.00;100834.75;5025887;28;20238;-49
2022/09/24 02:22:43;;;;;;;1.08;1.00;;;;;;;5.59;100.00;100829.72;5015176;28;20033;-49
2022/09/24 02:25:14;;;;;;;1.20;1.10;;;;;;;5.58;100.00;100828.88;5026126;28;20026;-53
2022/09/24 02:27:40;;;;;;;6.00;1.23;;;;;;;5.54;100.00;100829.34;5025984;28;20415;-50
2022/09/24 02:30:07;;;;;;;1.65;1.50;;;;;;;5.45;100.00;100829.25;5022230;28;20029;-50
2022/09/24 02:32:35;;;;;;;3.70;1.42;;;;;;;5.41;100.00;100835.78;5030210;28;20755;-51
2022/09/24 02:35:05;;;;;;;1.98;1.60;;;;;;;5.42;100.00;100829.56;5023704;28;20041;-52
2022/09/24 02:37:36;;;;;;;2.17;1.88;;;;;;;5.41;100.00;100822.63;5027598;28;20526;-53
2022/09/24 02:40:04;;;;;;;3.15;1.08;;;;;;;5.38;100.00;100828.19;5022563;28;20061;-49
2022/09/24 02:42:30;;;;;;;1.35;1.20;;;;;;;5.38;100.00;100830.81;5022756;28;20034;-52
2022/09/24 02:44:58;;;;;;;11.70;2.00;;;;;;;5.37;100.00;100829.19;5024633;28;20037;-51
2022/09/24 02:47:24;;;;;;;3.25;1.25;;;;;;;5.33;100.00;100824.34;5026372;28;20113;-51
2022/09/24 02:49:49;;;;;;;5.00;1.83;;;;;;;5.35;100.00;100830.31;5027620;28;20544;-53
2022/09/24 02:52:15;;;;;;;1.33;1.23;;;;;;;5.35;100.00;100832.94;5028851;28;20025;-55
2022/09/24 02:54:41;;;;;;;7.57;1.23;;;;;;;5.30;100.00;100836.00;5022719;28;20046;-53
2022/09/24 02:57:07;;;;;;;7.15;1.52;;;;;;;5.24;100.00;100845.31;5032262;28;20390;-49
2022/09/24 02:59:33;;;;;;;2.75;1.23;;;;;;;5.20;100.00;100841.31;5018801;28;20033;-55
2022/09/24 03:01:58;;;;;;;6.95;1.65;;;;;;;5.22;100.00;100841.16;5023335;28;20026;-55
2022/09/24 03:04:24;;;;;;;2.28;1.23;;;;;;;5.22;100.00;100847.25;5026472;28;20458;-51
2022/09/24 03:06:49;;;;;;;2.08;1.40;;;;;;;5.25;100.00;100844.31;5030513;28;20063;-52
2022/09/24 03:09:14;;;;;;;1.77;1.63;;;;;;;5.17;100.00;100844.22;5038691;28;20045;-49
2022/09/24 03:11:40;;;;;;;2.53;1.10;;;;;;;5.09;100.00;100841.50;5030621;28;20072;-49
2022/09/24 03:14:06;;;;;;;4.30;1.88;;;;;;;5.10;100.00;100843.16;5029140;28;20510;-49
2022/09/24 03:16:32;;;;;;;6.13;1.52;;;;;;;5.18;100.00;100848.50;5027355;28;20051;-50
2022/09/24 03:18:57;;;;;;;6.95;2.13;;;;;;;5.17;100.00;100846.88;5026540;28;20387;-49
2022/09/24 03:21:23;;;;;;;4.70;2.22;;;;;;;5.23;100.00;100841.00;5025584;28;20395;-49
2022/09/24 03:23:48;;;;;;;3.92;1.85;;;;;;;5.28;100.00;100843.19;5026205;28;20101;-50
2022/09/24 03:26:16;;;;;;;4.03;2.20;;;;;;;5.21;100.00;100839.50;5020401;28;20540;-51
2022/09/24 03:28:41;;;;;;;1.45;1.35;;;;;;;5.18;100.00;100840.63;5026016;28;20053;-50
2022/09/24 03:31:07;;;;;;;1.00;1.00;;;;;;;5.15;100.00;100842.72;5021225;28;20475;-52
2022/09/24 03:33:38;;;;;;;2.55;1.80;;;;;;;5.12;100.00;100838.59;5029858;28;20043;-51
2022/09/24 03:36:04;;;;;;;6.00;2.80;;;;;;;5.12;100.00;100838.59;5031011;28;20025;-49
2022/09/24 03:38:30;;;;;;;1.92;1.58;;;;;;;5.11;100.00;100836.09;5032050;28;20100;-52
2022/09/24 03:40:56;;;;;;;0.93;0.82;;;;;;;5.10;100.00;100842.34;5027567;28;20022;-51
2022/09/24 03:43:22;;;;;;;2.08;1.05;;;;;;;5.07;100.00;100842.63;5039338;28;20128;-50
2022/09/24 03:45:48;;;;;;;2.00;1.00;;;;;;;5.00;100.00;100848.47;5029208;28;20160;-54
2022/09/24 03:48:15;;;;;;;2.28;1.40;;;;;;;4.92;100.00;100848.34;5030582;28;20056;-54
2022/09/24 03:50:40;;;;;;;1.50;1.25;;;;;;;4.90;100.00;100845.03;5017884;28;20548;-49
2022/09/24 03:53:06;;;;;;;1.58;1.10;;;;;;;4.88;100.00;100847.00;5023654;28;20057;-51
2022/09/24 03:55:31;;;;;;;2.15;1.73;;;;;;;4.84;100.00;100850.88;5033474;28;20367;-53
2022/09/24 03:57:57;;;;;;;4.75;1.23;;;;;;;4.77;100.00;100850.63;5020053;28;20409;-52
2022/09/24 04:00:22;;;;;;;4.47;1.30;;;;;;;4.73;100.00;100844.03;5016488;28;20033;-50
2022/09/24 04:02:49;;;;;;;5.57;1.42;;;;;;;4.65;100.00;100854.44;5017636;28;20033;-50
2022/09/24 04:05:14;;;;;;;2.28;1.65;;;;;;;4.57;100.00;100855.13;5027755;28;20049;-52
2022/09/24 04:07:42;;;;;;;1.05;0.93;;;;;;;4.62;100.00;100859.13;5022246;28;20064;-51
2022/09/24 04:10:07;;;;;;;4.18;1.60;;;;;;;4.63;100.00;100858.16;5020084;28;20026;-54
2022/09/24 04:12:33;;;;;;;2.15;1.58;;;;;;;4.59;100.00;100854.97;5024468;28;20029;-49
2022/09/24 04:14:59;;;;;;;1.52;0.55;;;;;;;4.55;100.00;100857.06;5031937;28;20124;-51
2022/09/24 04:17:30;;;;;;;1.15;1.05;;;;;;;4.52;100.00;100859.16;5026393;28;20061;-49
2022/09/24 04:19:56;;;;;;;1.70;1.60;;;;;;;4.53;100.00;100866.88;5018321;28;20034;-49
2022/09/24 04:22:21;;;;;;;2.00;1.90;;;;;;;4.47;100.00;100862.22;5029730;28;20029;-50
2022/09/24 04:24:47;;;;;;;1.58;1.25;;;;;;;4.42;100.00;100864.44;5027073;28;20140;-49
2022/09/24 04:27:12;;;;;;;3.55;1.77;;;;;;;4.44;100.00;100865.13;5025688;28;20117;-49
2022/09/24 04:29:37;;;;;;;1.27;1.02;;;;;;;4.44;100.00;100864.28;5023210;28;20111;-48
2022/09/24 04:32:03;;;;;;;3.35;1.17;;;;;;;4.41;100.00;100872.44;5024560;28;20137;-49
2022/09/24 04:34:28;;;;;;;2.35;1.05;;;;;;;4.33;100.00;100873.16;5027790;28;20109;-49
2022/09/24 04:36:53;;;;;;;1.77;1.25;;;;;;;4.31;100.00;100880.31;5026017;28;20063;-49
2022/09/24 04:39:25;;;;;;;2.75;1.38;;;;;;;4.27;100.00;100878.97;5021990;28;20018;-50
2022/09/24 04:41:50;;;;;;;1.35;1.20;;;;;;;4.26;100.00;100869.41;5022936;28;20033;-51
2022/09/24 04:44:16;;;;;;;1.95;0.80;;;;;;;4.26;100.00;100874.66;5016985;28;20030;-49
2022/09/24 04:46:41;;;;;;;2.50;0.90;;;;;;;4.22;100.00;100871.50;5026386;28;20033;-52
2022/09/24 04:49:08;;;;;;;0.85;0.60;;;;;;;4.20;100.00;100877.88;5028961;28;20060;-51
2022/09/24 04:51:34;;;;;;;1.27;0.75;;;;;;;4.13;100.00;100877.59;5020100;28;20029;-53
2022/09/24 04:54:01;;;;;;;1.25;1.15;;;;;;;4.13;100.00;100883.69;5017907;28;20087;-55
2022/09/24 04:56:27;;;;;;;1.75;1.08;;;;;;;4.11;100.00;100885.63;5024829;28;20422;-51
2022/09/24 04:58:53;;;;;;;0.73;0.73;;;;;;;4.08;100.00;100875.41;5019589;28;20029;-50
2022/09/24 05:01:19;;;;;;;6.10;1.88;;;;;;;4.09;100.00;100879.66;5028601;28;20013;-50
2022/09/24 05:03:45;;;;;;;1.27;0.93;;;;;;;4.05;100.00;100877.44;5029256;28;20074;-53
2022/09/24 05:06:10;;;;;;;1.25;1.02;;;;;;;4.04;100.00;100878.44;5026057;28;20033;-53
2022/09/24 05:08:36;;;;;;;1.45;1.08;;;;;;;3.98;100.00;100874.56;5024410;28;20026;-53
2022/09/24 05:11:01;;;;;;;1.30;1.20;;;;;;;3.91;100.00;100878.72;5028920;28;20398;-53
2022/09/24 05:13:27;;;;;;;2.22;1.27;;;;;;;3.92;100.00;100885.59;5024577;28;20049;-48
2022/09/24 05:15:52;;;;;;;2.97;1.45;;;;;;;3.89;100.00;100886.69;5024838;28;20497;-48
2022/09/24 05:18:18;;;;;;;3.55;1.23;;;;;;;3.90;100.00;100887.56;5025788;28;20482;-52
2022/09/24 05:20:43;;;;;;;2.55;0.77;;;;;;;3.83;100.00;100887.25;5028474;28;20116;-53
2022/09/24 05:23:09;;;;;;;3.90;1.98;;;;;;;3.80;100.00;100890.16;5027220;28;20060;-49
2022/09/24 05:27:07;;;;;;;2.33;0.75;;;;;;;3.79;100.00;100885.03;5025359;28;20108;-49
2022/09/24 05:28:20;;;;;;;0.93;0.90;;;;;;;3.79;100.00;100882.41;5022254;28;20038;-51
2022/09/24 05:30:46;;;;;;;0.80;0.75;;;;;;;3.76;100.00;100887.94;5033015;28;20051;-51
2022/09/24 05:33:11;;;;;;;1.00;0.60;;;;;;;3.71;100.00;100899.66;5031027;28;20375;-49
2022/09/24 05:35:37;;;;;;;0.73;0.68;;;;;;;3.70;100.00;100898.00;5026367;28;20025;-49
2022/09/24 05:38:02;;;;;;;1.42;1.38;;;;;;;3.72;100.00;100890.84;5023556;28;20026;-49
2022/09/24 05:43:11;;;;;;;3.17;2.15;;;;;;;3.73;100.00;100902.16;5025440;28;20083;-49
2022/09/24 05:45:37;;;;;;;0.82;0.80;;;;;;;3.71;100.00;100906.72;5025823;28;20037;-49
2022/09/24 05:48:03;;;;;;;3.35;0.70;;;;;;;3.68;100.00;100915.69;5030640;28;20420;-48
2022/09/24 05:50:28;;;;;;;2.50;0.88;;;;;;;3.67;100.00;100914.03;5024334;28;20033;-53
2022/09/24 05:52:54;;;;;;;3.40;1.02;;;;;;;3.70;100.00;100919.00;5029909;28;20038;-49
2022/09/24 05:55:19;;;;;;;1.90;1.00;;;;;;;3.75;100.00;100920.41;5028371;28;20030;-49
2022/09/24 05:57:44;;;;;;;1.65;1.45;;;;;;;3.68;100.00;100920.91;5030727;28;20025;-50
2022/09/24 06:00:10;;;;;;;2.78;0.85;;;;;;;3.65;100.00;100925.63;5020867;28;20036;-48
2022/09/24 06:02:36;;;;;;;1.60;1.10;;;;;;;3.71;100.00;100927.69;5032794;28;20494;-51
2022/09/24 06:05:01;;;;;;;2.53;2.33;;;;;;;3.71;100.00;100925.88;5030990;28;20041;-50
2022/09/24 06:07:26;;;;;;;0.75;0.70;;;;;;;3.77;100.00;100921.91;5019123;28;20037;-49
2022/09/24 06:09:52;;;;;;;0.52;0.52;;;;;;;3.80;100.00;100932.13;5035209;28;20347;-55
2022/09/24 06:12:17;;;;;;;1.27;0.90;;;;;;;3.79;100.00;100927.00;5024378;28;20135;-49
2022/09/24 06:14:42;;;;;;;1.67;1.08;;;;;;;3.78;100.00;100931.44;5037054;28;20099;-50
2022/09/24 06:17:11;;;;;;;1.08;0.77;;;;;;;3.80;100.00;100934.75;5030671;28;20049;-51
2022/09/24 06:19:36;;;;;;;1.63;1.02;;;;;;;3.88;100.00;100942.78;5027037;28;20032;-50
2022/09/24 06:22:01;;;;;;;3.05;1.35;;;;;;;3.92;100.00;100944.16;5032507;28;20409;-49
2022/09/24 06:24:27;;;;;;;1.60;1.23;;;;;;;4.01;100.00;100942.50;5025690;28;20065;-51
2022/09/24 06:26:52;;;;;;;2.80;0.85;;;;;;;4.03;100.00;100935.34;5030308;28;20490;-48
2022/09/24 06:29:18;;;;;;;2.70;0.88;;;;;;;4.07;100.00;100946.38;5022291;28;20381;-53
2022/09/24 06:31:44;;;;;;;1.67;0.80;;;;;;;4.17;100.00;100946.38;5026781;28;20079;-50
2022/09/24 06:34:10;;;;;;;2.60;1.60;;;;;;;4.27;100.00;100947.22;5028252;28;20037;-50
2022/09/24 06:36:35;;;;;;;3.83;1.58;;;;;;;4.41;100.00;100944.16;5034979;28;20367;-53
2022/09/24 06:39:00;;;;;;;5.10;1.48;;;;;;;4.81;100.00;100949.22;5026464;28;20459;-54
2022/09/24 06:41:26;;;;;;;2.58;2.15;;;;;;;4.96;100.00;100948.78;5024621;28;20470;-51
2022/09/24 06:43:54;;;;;;;3.22;2.03;;;;;;;4.96;100.00;100954.84;5029152;28;20174;-51
2022/09/24 06:46:22;;;;;;;2.28;1.88;;;;;;;4.93;100.00;100957.78;5027401;28;20057;-51
2022/09/24 06:48:48;;;;;;;3.35;2.17;;;;;;;4.95;100.00;100963.69;5023526;28;20033;-48
2022/09/24 06:51:13;;;;;;;6.43;1.95;;;;;;;5.16;100.00;100967.91;5026729;28;20521;-48
2022/09/24 06:53:39;;;;;;;2.92;2.67;;;;;;;5.33;100.00;100971.59;5024589;28;20066;-50
2022/09/24 06:56:05;;;;;;;2.42;2.10;;;;;;;5.47;100.00;100974.59;5020203;28;20044;-48
2022/09/24 06:58:30;;;;;;;5.05;2.70;;;;;;;5.49;100.00;100984.13;5018655;28;20040;-51
2022/09/24 07:01:03;;;;;;;5.38;3.65;;;;;;;5.58;100.00;100980.63;5024667;28;20697;-53
2022/09/24 07:03:31;;;;;;;6.53;2.72;;;;;;;5.64;100.00;100972.97;5017032;28;20584;-52
2022/09/24 07:06:00;;;;;;;4.45;2.83;;;;;;;5.75;100.00;100976.38;5014846;28;20071;-49
2022/09/24 07:08:25;;;;;;;3.58;2.92;;;;;;;6.04;100.00;100981.47;5024194;28;20026;-50
2022/09/24 07:10:53;;;;;;;4.97;3.10;;;;;;;6.16;100.00;100987.38;5017389;28;20034;-48
2022/09/24 07:13:22;;;;;;;5.20;3.33;;;;;;;6.29;100.00;100995.72;5020431;28;20037;-49
2022/09/24 07:15:49;;;;;;;7.18;4.35;;;;;;;6.51;100.00;100994.44;5020595;28;20029;-49
2022/09/24 07:18:14;;;;;;;8.30;3.05;;;;;;;6.76;100.00;100998.09;5021806;28;20048;-49
2022/09/24 07:20:40;;;;;;;5.47;3.22;;;;;;;6.95;100.00;100997.09;5013824;28;20038;-49
2022/09/24 07:23:06;;;;;;;4.18;3.05;;;;;;;6.95;100.00;101003.19;5014710;28;20037;-48
2022/09/24 07:25:33;;;;;;;5.68;3.28;;;;;;;7.12;100.00;101000.63;5025268;28;20514;-50
2022/09/24 07:28:07;;;;;;;6.43;2.72;;;;;;;7.20;100.00;101000.69;5022263;28;20395;-50
2022/09/24 07:30:34;;;;;;;3.78;3.20;;;;;;;7.30;100.00;100998.75;5024208;28;20033;-49
2022/09/24 07:33:00;;;;;;;6.25;3.38;;;;;;;7.31;100.00;101003.06;5020185;28;20048;-50
2022/09/24 07:35:26;;;;;;;6.00;4.25;;;;;;;7.46;100.00;100995.41;5019191;28;20025;-50
2022/09/24 07:38:16;;;;;;;5.45;2.97;;;;;;;7.80;100.00;100995.38;5028189;28;20051;-52
2022/09/24 07:40:43;;;;;;;4.57;2.92;;;;;;;7.89;100.00;101006.75;5025216;28;20044;-50
2022/09/24 07:43:12;;;;;;;7.53;2.90;;;;;;;8.04;100.00;100999.88;5017281;28;20033;-52
2022/09/24 07:45:38;;;;;;;9.65;3.28;;;;;;;8.17;100.00;100998.59;5020812;28;20037;-52
2022/09/24 07:48:04;;;;;;;5.00;2.40;;;;;;;8.32;100.00;100996.13;5017151;28;20038;-53
2022/09/24 07:50:33;;;;;;;4.80;3.55;;;;;;;8.43;100.00;101003.75;5017836;28;20036;-49
2022/09/24 07:52:59;;;;;;;5.22;3.85;;;;;;;8.55;100.00;101001.63;5026050;28;20032;-50
2022/09/24 07:55:26;;;;;;;5.57;3.95;;;;;;;8.68;100.00;101004.59;5024795;28;20121;-50
2022/09/24 07:57:53;;;;;;;5.88;3.58;;;;;;;8.81;100.00;101012.88;5024336;28;20044;-51
2022/09/24 08:00:19;;;;;;;5.40;4.20;;;;;;;8.94;100.00;101013.19;5029543;28;20040;-48
2022/09/24 08:02:46;;;;;;;5.55;3.28;;;;;;;9.06;100.00;101012.81;5027362;28;20162;-49
2022/09/24 08:05:14;;;;;;;4.53;2.85;;;;;;;9.18;100.00;101019.41;5024911;28;20032;-49
2022/09/24 08:07:49;;;;;;;3.95;2.78;;;;;;;9.26;100.00;101021.22;5032501;28;20103;-49
2022/09/24 08:10:14;;;;;;;6.50;2.20;;;;;;;9.34;100.00;101023.84;5028536;28;20048;-49
2022/09/24 08:13:00;;;;;;;6.90;2.88;;;;;;;9.48;100.00;101024.97;5030157;28;20759;-52
2022/09/24 08:15:29;;;;;;;5.85;3.75;;;;;;;9.55;100.00;101031.22;5024571;28;20108;-52
2022/09/24 08:18:03;;;;;;;5.57;3.10;;;;;;;9.67;100.00;101026.38;5025895;28;20029;-50
2022/09/24 08:20:29;;;;;;;6.65;2.35;;;;;;;9.78;100.00;101032.16;5020573;28;20084;-56
2022/09/24 08:23:03;;;;;;;6.20;1.67;;;;;;;9.90;100.00;101031.75;5026152;28;20562;-54
2022/09/24 08:25:30;;;;;;;4.28;2.30;;;;;;;9.98;100.00;101042.31;5023286;28;20387;-52
2022/09/24 08:27:59;;;;;;;4.00;1.75;;;;;;;10.07;100.00;101040.44;5023097;28;20037;-50
2022/09/24 08:30:25;;;;;;;4.03;2.20;;;;;;;10.21;100.00;101037.88;5020772;28;20529;-51
2022/09/24 08:32:51;;;;;;;1.52;1.42;;;;;;;10.50;100.00;101046.97;5024917;28;20352;-53
2022/09/24 08:35:16;;;;;;;4.93;2.97;;;;;;;10.89;100.00;101044.22;5021068;28;20032;-53
2022/09/24 08:37:41;;;;;;;3.15;2.75;;;;;;;11.00;100.00;101042.13;5020450;28;20029;-50
2022/09/24 08:40:17;;;;;;;1.98;1.85;;;;;;;10.85;100.00;101029.66;5015622;28;20048;-49
2022/09/24 08:42:52;;;;;;;4.80;2.92;;;;;;;10.85;100.00;101029.66;5011081;28;20033;-51
2022/09/24 08:51:41;;;;;;;6.72;2.72;;;;;;;11.14;100.00;101039.47;5019859;28;20036;-53
2022/09/24 08:54:11;;;;;;;3.35;1.75;;;;;;;11.22;100.00;101035.09;5016816;28;20131;-52
2022/09/24 08:56:42;;;;;;;2.95;1.98;;;;;;;11.31;100.00;101036.69;5011045;28;20605;-54
2022/09/24 08:59:37;;;;;;;3.60;1.48;;;;;;;11.48;100.00;101034.66;5016448;28;20474;-51
2022/09/24 09:02:34;;;;;;;3.33;1.20;;;;;;;11.53;100.00;101022.47;5013213;28;20052;-49
2022/09/24 09:05:14;;;;;;;2.85;1.58;;;;;;;11.63;100.00;101026.69;5019451;28;20029;-53
2022/09/24 09:07:43;;;;;;;6.90;2.05;;;;;;;11.75;100.00;101028.69;5015207;28;20037;-53
2022/09/24 09:10:12;;;;;;;2.78;1.60;;;;;;;11.82;100.00;101023.44;5015278;28;20025;-52
2022/09/24 09:12:52;;;;;;;4.82;2.55;;;;;;;11.90;100.00;101015.44;5012402;28;20033;-54
2022/09/24 09:15:27;;;;;;;4.40;2.23;;;;;;;11.95;100.00;101015.69;5018662;28;20049;-54
2022/09/24 09:18:09;;;;;;;7.20;2.60;;;;;;;12.00;100.00;101012.44;5018744;28;20038;-54
2022/09/24 09:20:41;;;;;;;1.92;1.42;;;;;;;12.10;100.00;101007.66;5020939;28;20037;-52
2022/09/24 09:23:26;;;;;;;4.25;1.55;;;;;;;12.18;100.00;101014.69;5011092;28;20422;-53
2022/09/24 09:25:55;;;;;;;1.67;1.55;;;;;;;12.31;100.00;101020.13;5016584;28;20033;-53
2022/09/24 09:28:20;;;;;;;1.73;1.10;;;;;;;12.48;100.00;101007.44;5022906;28;20029;-50
2022/09/24 09:31:07;;;;;;;3.80;0.80;;;;;;;12.55;100.00;101004.84;5021707;28;20034;-51
2022/09/24 09:33:44;;;;;;;4.07;1.15;;;;;;;12.58;100.00;101004.44;5020624;28;20044;-50
2022/09/24 09:36:44;;;;;;;3.50;1.40;;;;;;;12.58;100.00;101007.13;5017200;28;20075;-52
2022/09/24 09:39:29;;;;;;;3.05;1.05;;;;;;;12.67;100.00;101000.63;5023220;28;20059;-52
2022/09/24 09:42:17;;;;;;;2.88;0.80;;;;;;;12.79;100.00;101006.25;5015715;28;20029;-52
2022/09/24 09:44:44;;;;;;;1.83;1.05;;;;;;;12.94;100.00;101006.19;5003438;28;20030;-52
2022/09/24 09:47:31;;;;;;;2.58;0.63;;;;;;;13.13;100.00;101013.47;5016553;28;20029;-51
2022/09/24 09:50:04;;;;;;;3.83;0.60;;;;;;;13.19;100.00;100999.38;5024257;28;20885;-51
2022/09/24 09:52:37;;;;;;;2.42;0.65;;;;;;;13.29;100.00;101004.38;5021929;28;20091;-57
2022/09/24 09:55:04;;;;;;;1.85;0.43;;;;;;;13.22;100.00;101000.84;5010838;28;20038;-56
2022/09/24 09:57:30;;;;;;;0.65;0.22;;;;;;;13.30;100.00;100998.03;5018662;28;20034;-54
2022/09/24 09:59:56;;;;;;;3.42;0.30;;;;;;;13.47;100.00;101009.19;5020035;28;20072;-51
2022/09/24 10:02:32;;;;;;;2.63;0.30;;;;;;;13.59;100.00;101001.47;5017464;28;20496;-56
2022/09/24 10:04:59;;;;;;;2.38;0.50;;;;;;;13.58;100.00;100999.81;5013892;28;20068;-54
2022/09/24 10:07:25;;;;;;;2.72;0.65;;;;;;;13.71;100.00;100998.03;5016139;28;20038;-51
2022/09/24 10:10:01;;;;;;;1.00;0.40;;;;;;;13.85;100.00;100992.75;5023634;28;20041;-54
2022/09/24 10:12:27;;;;;;;7.00;1.77;;;;;;;13.78;100.00;100991.91;5028728;28;20025;-55
2022/09/24 10:15:25;;;;;;;1.15;0.70;;;;;;;13.76;100.00;100984.13;5023434;28;20053;-53
2022/09/24 10:17:53;;;;;;;1.63;0.98;;;;;;;13.84;100.00;100981.28;5033912;28;20115;-53
2022/09/24 10:20:27;;;;;;;2.83;0.98;;;;;;;14.06;100.00;100979.28;5031808;28;20037;-52
2022/09/24 10:23:01;;;;;;;1.17;0.95;;;;;;;14.10;100.00;100974.38;5022127;28;20029;-52
2022/09/24 10:25:29;;;;;;;3.55;0.68;;;;;;;14.27;100.00;100977.47;5029366;28;20063;-53
2022/09/24 10:31:10;;;;;;;1.10;0.32;;;;;;;14.64;100.00;100975.25;5027405;28;20040;-50
2022/09/24 10:33:42;;;;;;;1.10;0.70;;;;;;;14.73;100.00;100974.84;5032561;28;20036;-56
2022/09/24 10:36:18;;;;;;;3.15;0.40;;;;;;;14.71;100.00;100974.22;5027149;28;20017;-53
2022/09/24 10:38:43;;;;;;;4.60;0.50;;;;;;;14.87;100.00;100972.16;5028458;28;20495;-53
2022/09/24 10:41:28;;;;;;;4.72;0.70;;;;;;;14.75;100.00;100970.13;5034320;28;20060;-56
2022/09/24 10:43:56;;;;;;;0.85;0.43;;;;;;;14.92;100.00;100970.53;5028632;28;20029;-50
2022/09/24 10:46:27;;;;;;;1.83;0.68;;;;;;;15.11;100.00;100968.03;5014416;28;20494;-49
2022/09/24 10:49:16;;;;;;;0.77;0.47;;;;;;;15.03;100.00;100961.88;5027391;28;20037;-55
2022/09/24 10:52:03;;;;;;;1.45;0.73;;;;;;;15.04;100.00;100968.84;5019711;28;20044;-56
2022/09/24 10:54:43;;;;;;;3.80;0.32;;;;;;;15.41;100.00;100960.31;5019295;28;20044;-52
2022/09/24 10:57:18;;;;;;;0.93;0.25;;;;;;;15.58;100.00;100953.47;5019205;28;20583;-50
2022/09/24 11:00:02;;;;;;;0.75;0.28;;;;;;;15.58;100.00;100958.81;5016321;28;20026;-49
2022/09/24 11:02:45;;;;;;;0.65;0.20;;;;;;;15.57;100.00;100964.41;5026072;28;20116;-55
2022/09/24 11:05:18;;;;;;;1.70;0.20;;;;;;;15.99;100.00;100948.78;5020565;28;20501;-58
2022/09/24 11:08:08;;;;;;;3.63;0.98;;;;;;;15.80;100.00;100958.53;5010141;28;20038;-52
2022/09/24 11:11:02;;;;;;;1.15;0.10;;;;;;;15.25;100.00;100966.97;5023600;28;20098;-53
2022/09/24 11:13:56;;;;;;;2.20;0.20;;;;;;;15.04;100.00;100963.50;5027987;28;20057;-54
2022/09/24 11:16:52;;;;;;;0.68;0.00;;;;;;;14.82;100.00;100970.13;5025365;28;20051;-49
2022/09/24 11:19:17;;;;;;;1.65;0.70;;;;;;;15.14;100.00;100962.28;5022365;28;20496;-50
2022/09/24 11:22:01;;;;;;;2.83;0.20;;;;;;;15.61;100.00;100953.03;5027387;28;20049;-55
2022/09/24 11:24:47;;;;;;;0.32;0.00;;;;;;;15.89;100.00;100957.28;5027389;28;20017;-54
2022/09/24 11:27:50;;;;;;;1.63;0.10;;;;;;;16.17;100.00;100945.38;5027107;28;20064;-50
2022/09/24 11:30:17;;;;;;;0.45;0.32;;;;;;;16.16;100.00;100949.91;5023359;28;20382;-52
2022/09/24 11:33:07;;;;;;;0.63;0.00;;;;;;;16.21;100.00;100946.56;5026062;28;20033;-55
2022/09/24 11:36:14;;;;;;;0.85;0.10;;;;;;;16.39;100.00;100943.13;5026053;28;20172;-56
2022/09/24 11:38:53;;;;;;;1.75;0.10;;;;;;;16.78;100.00;100942.03;5019593;28;20078;-51
2022/09/24 11:41:37;;;;;;;0.10;0.00;;;;;;;17.14;100.00;100945.75;5025681;28;20068;-56
2022/09/24 11:44:16;;;;;;;3.80;0.20;;;;;;;17.34;100.00;100940.19;5026836;28;20111;-56
2022/09/24 11:47:27;;;;;;;0.00;0.00;;;;;;;17.24;100.00;100935.34;5021087;28;20080;-49
2022/09/24 11:50:18;;;;;;;4.28;0.10;;;;;;;17.11;100.00;100938.97;5020282;28;20068;-58
2022/09/24 11:52:56;;;;;;;2.40;0.00;;;;;;;16.58;100.00;100942.97;5027267;28;20041;-54
2022/09/24 11:55:31;;;;;;;0.35;0.03;;;;;;;16.18;100.00;100952.34;5012186;28;20125;-53
2022/09/24 11:58:13;;;;;;;0.00;0.00;;;;;;;15.90;100.00;100954.38;5021668;28;20060;-58